Time;durP1;ratioP1;P1;durP2;ratioP2;P2;SDS_P1;SDS_P2;PMS_P1;PMS_P2;Temp;Humidity;BMP_temperature;BMP_pressure;BME280_temperature;BME280_humidity;BME280_pressure;Samples;Min_cycle;Max_cycle;Signal;HPM_P1;HPM_P2
2022/05/21 00:01:43;;;;;;;12.80;6.93;;;13.60;99.90;;;;;;5036368;28;20057;-75
2022/05/21 00:04:10;;;;;;;11.35;7.00;;;13.50;99.90;;;;;;5036108;28;20053;-76
2022/05/21 00:06:38;;;;;;;10.95;7.40;;;13.50;99.90;;;;;;5034986;28;20045;-76
2022/05/21 00:09:06;;;;;;;9.70;6.88;;;13.50;99.90;;;;;;5036237;28;20037;-75
2022/05/21 00:11:33;;;;;;;11.38;6.70;;;13.40;99.90;;;;;;5036242;28;20041;-76
2022/05/21 00:14:01;;;;;;;11.82;6.90;;;13.40;99.90;;;;;;5035913;28;20485;-75
2022/05/21 00:16:31;;;;;;;12.88;6.82;;;13.30;99.90;;;;;;5035068;28;20038;-76
2022/05/21 00:18:58;;;;;;;11.10;6.85;;;13.30;99.90;;;;;;5036881;28;20041;-76
2022/05/21 00:21:25;;;;;;;8.00;6.10;;;13.30;99.90;;;;;;5036402;28;20045;-76
2022/05/21 00:23:53;;;;;;;10.18;6.72;;;13.30;99.90;;;;;;5036293;28;20052;-76
2022/05/21 00:26:21;;;;;;;10.60;6.28;;;13.30;99.90;;;;;;5036719;28;20124;-75
2022/05/21 00:28:50;;;;;;;13.65;6.15;;;13.20;99.90;;;;;;5035148;28;20049;-75
2022/05/21 00:31:19;;;;;;;12.20;6.70;;;13.20;99.90;;;;;;5036070;28;20053;-75
2022/05/21 00:33:49;;;;;;;12.13;7.10;;;13.20;99.90;;;;;;5035954;28;20045;-75
2022/05/21 00:36:17;;;;;;;9.65;6.70;;;13.10;99.90;;;;;;5035836;28;20096;-75
2022/05/21 00:38:45;;;;;;;12.80;6.82;;;13.10;99.90;;;;;;5035670;28;20045;-76
2022/05/21 00:41:15;;;;;;;10.85;6.07;;;13.10;99.90;;;;;;5035596;28;20048;-75
2022/05/21 00:43:46;;;;;;;10.57;6.95;;;13.10;99.90;;;;;;5034808;28;20111;-76
2022/05/21 00:46:17;;;;;;;10.13;6.47;;;13.00;99.90;;;;;;5034438;28;20077;-75
2022/05/21 00:48:45;;;;;;;12.05;6.22;;;13.00;99.90;;;;;;5035815;28;20107;-76
2022/05/21 00:51:20;;;;;;;9.20;6.15;;;12.90;99.90;;;;;;5035550;28;20037;-75
2022/05/21 00:53:50;;;;;;;12.57;6.55;;;12.90;99.90;;;;;;5035347;28;20576;-75
2022/05/21 00:56:18;;;;;;;11.05;6.05;;;12.90;99.90;;;;;;5035544;28;20049;-75
2022/05/21 01:01:38;;;;;;;12.05;6.63;;;12.90;99.90;;;;;;5035197;28;20501;-76
2022/05/21 01:04:05;;;;;;;13.77;6.55;;;12.90;99.90;;;;;;5035092;28;20041;-75
2022/05/21 01:06:36;;;;;;;10.85;6.70;;;12.90;99.90;;;;;;5035352;28;20041;-75
2022/05/21 01:09:03;;;;;;;10.90;6.97;;;12.80;99.90;;;;;;5035910;28;20489;-75
2022/05/21 01:11:31;;;;;;;10.35;7.45;;;12.70;99.90;;;;;;5035400;28;20042;-75
2022/05/21 01:14:00;;;;;;;18.70;12.93;;;12.70;99.90;;;;;;5035125;28;20049;-74
2022/05/21 01:16:29;;;;;;;9.88;6.45;;;12.70;99.90;;;;;;5015466;28;20393;-75
2022/05/21 01:18:57;;;;;;;11.63;7.00;;;12.70;99.90;;;;;;5015545;28;20128;-75
2022/05/21 01:21:24;;;;;;;14.35;10.10;;;12.70;99.90;;;;;;5015499;28;20046;-75
2022/05/21 01:23:53;;;;;;;13.73;7.57;;;12.70;99.90;;;;;;5025551;28;20053;-75
2022/05/21 01:26:24;;;;;;;15.70;9.55;;;12.60;99.90;;;;;;5035469;28;20120;-75
2022/05/21 01:28:52;;;;;;;9.00;6.70;;;12.70;99.90;;;;;;5033529;28;20041;-74
2022/05/21 01:31:19;;;;;;;11.48;6.28;;;12.70;99.90;;;;;;5035441;28;20068;-75
2022/05/21 01:33:47;;;;;;;8.25;5.70;;;12.60;99.90;;;;;;5036938;28;20045;-75
2022/05/21 01:36:15;;;;;;;10.23;7.18;;;12.50;99.90;;;;;;5033733;28;20041;-75
2022/05/21 01:38:45;;;;;;;9.80;6.43;;;12.50;99.90;;;;;;5035058;28;20389;-76
2022/05/21 01:41:14;;;;;;;12.48;6.63;;;12.50;99.90;;;;;;5034704;28;20046;-75
2022/05/21 01:46:28;;;;;;;10.88;6.78;;;12.50;99.90;;;;;;5033451;28;20037;-75
2022/05/21 01:48:56;;;;;;;12.18;6.68;;;12.50;99.90;;;;;;5033342;28;20132;-75
2022/05/21 01:51:23;;;;;;;9.63;6.72;;;12.40;99.90;;;;;;5034453;28;20120;-75
2022/05/21 01:53:50;;;;;;;10.73;6.30;;;12.50;99.90;;;;;;5034240;28;20408;-75
2022/05/21 01:56:19;;;;;;;11.07;6.75;;;12.50;99.90;;;;;;5032856;28;20060;-74
2022/05/21 01:58:46;;;;;;;20.85;8.40;;;12.30;99.90;;;;;;5033100;28;20048;-75
2022/05/21 02:01:14;;;;;;;11.13;6.97;;;12.30;99.90;;;;;;5033911;28;20060;-75
2022/05/21 02:03:41;;;;;;;9.75;7.07;;;12.20;99.90;;;;;;5034095;28;20046;-75
2022/05/21 02:06:09;;;;;;;12.95;7.57;;;12.20;99.90;;;;;;5034393;28;20049;-75
2022/05/21 02:08:36;;;;;;;12.43;7.40;;;12.20;99.90;;;;;;5033404;28;20045;-75
2022/05/21 02:11:05;;;;;;;12.68;7.30;;;12.10;99.90;;;;;;5033746;28;20499;-75
2022/05/21 02:13:35;;;;;;;11.98;8.02;;;12.00;99.90;;;;;;5032766;28;20485;-75
2022/05/21 02:16:02;;;;;;;13.68;7.28;;;12.00;99.90;;;;;;5033898;28;20041;-75
2022/05/21 02:18:30;;;;;;;16.58;7.38;;;12.10;99.90;;;;;;5033938;28;20049;-76
2022/05/21 02:20:57;;;;;;;13.70;7.13;;;12.10;99.90;;;;;;5033654;28;20087;-75
2022/05/21 02:23:25;;;;;;;11.05;6.75;;;12.10;99.90;;;;;;5033509;28;20049;-75
2022/05/21 02:25:53;;;;;;;12.23;6.88;;;12.10;99.90;;;;;;5033834;28;20042;-75
2022/05/21 02:28:20;;;;;;;10.73;6.82;;;12.00;99.90;;;;;;5032717;28;20044;-75
2022/05/21 02:30:49;;;;;;;12.43;7.10;;;12.00;99.90;;;;;;5033705;28;20111;-75
2022/05/21 02:33:17;;;;;;;13.35;6.93;;;11.90;99.90;;;;;;5033723;28;20042;-75
2022/05/21 02:35:44;;;;;;;10.50;7.50;;;11.90;99.90;;;;;;5033380;28;20041;-75
2022/05/21 02:40:57;;;;;;;12.60;7.47;;;11.90;99.90;;;;;;5033677;28;20057;-75
2022/05/21 02:43:25;;;;;;;12.25;7.85;;;11.80;99.90;;;;;;5033593;28;20485;-75
2022/05/21 02:45:53;;;;;;;13.32;8.05;;;11.80;99.90;;;;;;5034504;28;20041;-76
2022/05/21 02:48:22;;;;;;;12.45;7.10;;;11.90;99.90;;;;;;5033789;28;20049;-76
2022/05/21 02:50:49;;;;;;;13.45;7.32;;;11.90;99.90;;;;;;5033903;28;20041;-77
2022/05/21 02:53:19;;;;;;;10.15;6.93;;;11.90;99.90;;;;;;5037946;28;20627;-78
2022/05/21 02:55:47;;;;;;;13.63;7.35;;;11.90;99.90;;;;;;5039095;28;20056;-78
2022/05/21 02:58:15;;;;;;;12.68;8.00;;;11.80;99.90;;;;;;5036774;28;20049;-78
2022/05/21 03:00:44;;;;;;;13.45;7.25;;;11.70;99.90;;;;;;5037824;28;20060;-78
2022/05/21 03:03:14;;;;;;;9.68;6.75;;;11.70;99.90;;;;;;5036693;28;20056;-78
2022/05/21 03:05:42;;;;;;;11.95;7.28;;;11.70;99.90;;;;;;5037204;28;20041;-78
2022/05/21 03:10:56;;;;;;;12.77;7.18;;;11.60;99.90;;;;;;5037811;28;20064;-78
2022/05/21 03:13:25;;;;;;;10.18;6.85;;;11.60;99.90;;;;;;5038301;28;20053;-78
2022/05/21 03:15:53;;;;;;;9.65;7.03;;;11.50;99.90;;;;;;5035472;28;20052;-78
2022/05/21 03:18:22;;;;;;;10.15;7.55;;;11.50;99.90;;;;;;5033873;28;20404;-78
2022/05/21 03:20:49;;;;;;;12.65;7.75;;;11.50;99.90;;;;;;5036642;28;20471;-78
2022/05/21 03:23:17;;;;;;;12.48;8.20;;;11.50;99.90;;;;;;5037288;28;20415;-76
2022/05/21 03:25:44;;;;;;;13.57;8.13;;;11.60;99.90;;;;;;5036944;28;20045;-76
2022/05/21 03:28:15;;;;;;;15.80;7.97;;;11.60;99.90;;;;;;5036890;28;20049;-76
2022/05/21 03:30:42;;;;;;;13.55;7.32;;;11.60;99.90;;;;;;5036985;28;20044;-76
2022/05/21 03:33:10;;;;;;;12.32;8.90;;;11.60;99.90;;;;;;5035509;28;20417;-76
2022/05/21 03:35:41;;;;;;;28.50;14.63;;;11.70;99.90;;;;;;5037062;28;20396;-76
2022/05/21 03:38:09;;;;;;;26.85;18.65;;;11.60;99.90;;;;;;5035574;28;20049;-75
2022/05/21 03:40:37;;;;;;;32.47;22.30;;;11.60;99.90;;;;;;5036825;28;20162;-76
2022/05/21 03:43:05;;;;;;;30.50;22.45;;;11.70;99.90;;;;;;5036855;28;20052;-76
2022/05/21 03:45:33;;;;;;;25.42;17.00;;;11.70;99.90;;;;;;5036607;28;20099;-76
2022/05/21 03:48:00;;;;;;;21.50;14.95;;;11.80;99.90;;;;;;5037084;28;20053;-76
2022/05/21 03:50:31;;;;;;;16.92;12.48;;;12.00;99.90;;;;;;5037357;28;20056;-76
2022/05/21 03:53:00;;;;;;;18.15;10.05;;;12.30;99.90;;;;;;5037880;28;20153;-77
2022/05/21 03:55:30;;;;;;;15.40;9.82;;;12.50;99.90;;;;;;5041959;28;20072;-77
2022/05/21 03:57:58;;;;;;;15.77;9.45;;;12.80;99.90;;;;;;5040223;28;20045;-76
2022/05/21 04:00:25;;;;;;;16.00;9.70;;;13.40;99.90;;;;;;5035217;28;20042;-77
2022/05/21 04:02:52;;;;;;;12.70;8.65;;;14.10;99.90;;;;;;5036426;28;20111;-76
2022/05/21 04:05:21;;;;;;;13.13;7.85;;;14.60;99.90;;;;;;5036511;28;20091;-76
2022/05/21 04:07:49;;;;;;;14.43;8.00;;;15.00;99.90;;;;;;5036321;28;20038;-76
2022/05/21 04:10:18;;;;;;;13.43;8.73;;;15.60;99.90;;;;;;5036409;28;20480;-76
2022/05/21 04:12:46;;;;;;;14.18;7.88;;;16.30;99.90;;;;;;5036305;28;20046;-76
2022/05/21 04:15:14;;;;;;;16.55;7.53;;;16.80;99.90;;;;;;5036074;28;20041;-76
2022/05/21 04:17:42;;;;;;;14.10;7.32;;;17.10;99.90;;;;;;5036015;28;20519;-76
2022/05/21 04:20:12;;;;;;;12.85;7.20;;;17.50;99.90;;;;;;5034953;28;20072;-75
2022/05/21 04:22:40;;;;;;;12.63;7.38;;;17.90;99.90;;;;;;5035756;28;20420;-76
2022/05/21 04:25:09;;;;;;;12.20;6.78;;;17.90;99.90;;;;;;5036003;28;20539;-76
2022/05/21 04:27:39;;;;;;;13.43;7.13;;;17.90;99.90;;;;;;5036069;28;20515;-75
2022/05/21 04:30:10;;;;;;;15.48;6.53;;;18.00;99.90;;;;;;5035685;28;20042;-76
2022/05/21 04:32:38;;;;;;;12.27;6.93;;;18.50;99.90;;;;;;5034858;28;20132;-76
2022/05/21 04:35:06;;;;;;;11.52;7.07;;;19.30;99.90;;;;;;5036149;28;20041;-76
2022/05/21 04:37:37;;;;;;;13.65;7.88;;;20.20;99.90;;;;;;5035879;28;20073;-76
2022/05/21 04:40:06;;;;;;;15.05;9.70;;;20.90;99.90;;;;;;5035852;28;20056;-76
2022/05/21 04:42:33;;;;;;;15.52;9.05;;;21.20;99.90;;;;;;5035357;28;20057;-75
2022/05/21 04:45:03;;;;;;;16.80;9.15;;;21.50;99.90;;;;;;5035283;28;20048;-76
2022/05/21 04:47:30;;;;;;;14.52;7.30;;;21.50;99.90;;;;;;5035338;28;20045;-76
2022/05/21 04:49:57;;;;;;;13.88;7.03;;;21.60;99.90;;;;;;5035518;28;20412;-74
2022/05/21 04:52:25;;;;;;;13.73;7.25;;;21.70;99.90;;;;;;5035286;28;20505;-74
2022/05/21 04:54:53;;;;;;;11.55;7.32;;;20.90;99.90;;;;;;5035964;28;20133;-75
2022/05/21 04:57:20;;;;;;;13.43;6.85;;;20.00;99.90;;;;;;5035531;28;20450;-75
2022/05/21 04:59:47;;;;;;;12.75;7.38;;;19.10;99.90;;;;;;5033954;28;20075;-75
2022/05/21 05:02:16;;;;;;;14.10;7.82;;;19.10;99.90;;;;;;5035933;28;20057;-74
2022/05/21 05:04:44;;;;;;;11.63;7.13;;;19.40;99.90;;;;;;5035015;28;20060;-74
2022/05/21 05:07:12;;;;;;;12.38;8.43;;;20.10;99.90;;;;;;5035483;28;20522;-74
2022/05/21 05:09:42;;;;;;;12.30;8.00;;;20.70;99.90;;;;;;5035584;28;20069;-75
2022/05/21 05:12:10;;;;;;;21.73;13.85;;;21.30;99.90;;;;;;5035179;28;20424;-74
2022/05/21 05:14:37;;;;;;;22.88;13.77;;;22.10;99.90;;;;;;5033992;28;20099;-75
2022/05/21 05:17:06;;;;;;;14.70;10.27;;;22.60;99.90;;;;;;5033792;28;20041;-75
2022/05/21 05:19:35;;;;;;;13.95;7.82;;;23.20;99.90;;;;;;5034672;28;20069;-75
2022/05/21 05:22:02;;;;;;;11.45;7.22;;;22.90;99.90;;;;;;5034918;28;20409;-75
2022/05/21 05:24:30;;;;;;;9.23;6.80;;;22.60;99.90;;;;;;5034569;28;20069;-75
2022/05/21 05:26:58;;;;;;;12.75;7.10;;;22.50;99.90;;;;;;5034743;28;20125;-75
2022/05/21 05:29:25;;;;;;;12.00;7.72;;;22.50;99.90;;;;;;5034425;28;20095;-75
2022/05/21 05:31:54;;;;;;;12.68;8.60;;;22.70;99.90;;;;;;5034506;28;20034;-75
2022/05/21 05:34:22;;;;;;;26.17;9.23;;;22.60;99.90;;;;;;5034399;28;20125;-75
2022/05/21 05:36:51;;;;;;;19.27;8.15;;;22.70;99.90;;;;;;5034659;28;20041;-75
2022/05/21 05:39:18;;;;;;;15.18;8.07;;;22.50;99.90;;;;;;5034057;28;20531;-75
2022/05/21 05:41:46;;;;;;;12.77;6.43;;;22.60;99.90;;;;;;5033063;28;20045;-74
2022/05/21 05:44:13;;;;;;;11.82;6.68;;;21.50;99.90;;;;;;5034095;28;20045;-75
2022/05/21 05:46:41;;;;;;;13.68;6.63;;;20.80;99.90;;;;;;5034156;28;20090;-74
2022/05/21 05:49:08;;;;;;;11.77;6.65;;;21.30;99.90;;;;;;5032893;28;20045;-74
2022/05/21 05:51:36;;;;;;;8.70;6.15;;;21.30;99.90;;;;;;5032613;28;20056;-75
2022/05/21 05:54:05;;;;;;;13.73;6.82;;;21.40;99.90;;;;;;5034269;28;20397;-74
2022/05/21 05:56:33;;;;;;;18.42;7.63;;;21.50;99.90;;;;;;5033390;28;20048;-75
2022/05/21 06:01:45;;;;;;;12.48;7.05;;;22.10;99.90;;;;;;5033555;28;20069;-75
2022/05/21 06:04:13;;;;;;;13.30;7.35;;;22.20;99.90;;;;;;5033838;28;20162;-74
2022/05/21 06:06:40;;;;;;;13.43;7.28;;;22.30;99.90;;;;;;5032648;28;20069;-74
2022/05/21 06:09:11;;;;;;;10.98;8.25;;;22.40;99.90;;;;;;5034176;28;20048;-75
2022/05/21 06:11:39;;;;;;;16.40;8.75;;;22.70;99.90;;;;;;5032761;28;20455;-75
2022/05/21 06:14:09;;;;;;;10.48;6.78;;;22.80;99.90;;;;;;5033940;28;20049;-74
2022/05/21 06:16:36;;;;;;;17.67;8.25;;;23.10;99.90;;;;;;5033782;28;20069;-75
2022/05/21 06:19:04;;;;;;;12.52;9.30;;;23.20;99.90;;;;;;5032490;28;20095;-75
2022/05/21 06:21:32;;;;;;;14.55;8.23;;;23.20;99.90;;;;;;5033203;28;20084;-75
2022/05/21 06:23:59;;;;;;;13.85;7.82;;;23.40;99.90;;;;;;5013845;28;20046;-75
2022/05/21 06:26:28;;;;;;;14.88;7.80;;;23.50;99.90;;;;;;5016909;28;20069;-75
2022/05/21 06:28:55;;;;;;;8.57;7.15;;;23.30;99.90;;;;;;5024760;28;20034;-75
2022/05/21 06:31:22;;;;;;;14.77;8.32;;;23.50;99.90;;;;;;5019765;28;20040;-75
2022/05/21 06:33:50;;;;;;;12.57;6.75;;;23.60;99.90;;;;;;5033207;28;20047;-75
2022/05/21 06:36:18;;;;;;;19.10;7.95;;;23.50;99.90;;;;;;5033116;28;20052;-75
2022/05/21 06:38:46;;;;;;;17.42;6.72;;;23.60;99.90;;;;;;5033276;28;20037;-75
2022/05/21 06:41:14;;;;;;;11.43;6.72;;;23.60;99.90;;;;;;5033631;28;20048;-75
2022/05/21 06:43:42;;;;;;;17.67;7.72;;;23.70;99.90;;;;;;5032086;28;20128;-75
2022/05/21 06:46:10;;;;;;;16.77;11.18;;;23.90;99.90;;;;;;5029670;28;20053;-75
2022/05/21 06:48:38;;;;;;;15.40;10.70;;;24.10;99.90;;;;;;5033464;28;20511;-76
2022/05/21 06:51:06;;;;;;;28.15;10.95;;;24.20;99.90;;;;;;5033478;28;20037;-74
2022/05/21 06:53:34;;;;;;;15.35;8.48;;;24.20;99.90;;;;;;5033231;28;20455;-74
2022/05/21 06:56:06;;;;;;;17.85;7.82;;;24.20;99.90;;;;;;5033077;28;20471;-75
2022/05/21 06:58:36;;;;;;;18.90;8.38;;;24.40;99.90;;;;;;5033133;28;20052;-75
2022/05/21 07:01:05;;;;;;;12.52;6.90;;;24.70;99.90;;;;;;5031683;28;20060;-74
2022/05/21 07:03:32;;;;;;;17.85;6.30;;;24.80;99.90;;;;;;5032502;28;20049;-74
2022/05/21 07:08:46;;;;;;;17.98;7.10;;;25.00;99.90;;;;;;5045513;28;20036;-74
2022/05/21 07:11:13;;;;;;;10.48;6.15;;;25.20;99.90;;;;;;5033189;28;20477;-74
2022/05/21 07:13:43;;;;;;;15.20;6.85;;;25.20;99.90;;;;;;5041522;28;20583;-75
2022/05/21 07:16:12;;;;;;;13.18;6.45;;;25.40;99.90;;;;;;5033386;28;20468;-74
2022/05/21 07:18:40;;;;;;;12.63;6.55;;;25.60;99.90;;;;;;5036025;28;20459;-74
2022/05/21 07:21:10;;;;;;;13.05;6.47;;;25.70;99.90;;;;;;5026822;28;20049;-74
2022/05/21 07:23:38;;;;;;;19.05;7.10;;;25.70;99.90;;;;;;5046986;28;20037;-74
2022/05/21 07:26:05;;;;;;;17.35;7.65;;;25.50;99.90;;;;;;5052833;28;20049;-73
2022/05/21 07:28:33;;;;;;;11.57;6.88;;;25.50;99.90;;;;;;5033431;28;20049;-74
2022/05/21 07:31:00;;;;;;;10.90;7.03;;;25.70;99.90;;;;;;5033309;28;20045;-74
2022/05/21 07:33:29;;;;;;;14.75;6.88;;;25.80;99.90;;;;;;5035265;28;20045;-74
2022/05/21 07:35:57;;;;;;;17.73;7.38;;;25.90;99.90;;;;;;5036607;28;20108;-74
2022/05/21 07:38:24;;;;;;;16.77;7.63;;;26.00;99.90;;;;;;5032501;28;20076;-74
2022/05/21 07:40:54;;;;;;;11.82;7.38;;;26.30;99.90;;;;;;5050326;28;20108;-74
2022/05/21 07:43:24;;;;;;;21.05;8.35;;;26.50;99.90;;;;;;5055533;28;20068;-74
2022/05/21 07:45:52;;;;;;;21.92;8.38;;;26.60;99.90;;;;;;5064928;28;20049;-74
2022/05/21 07:48:19;;;;;;;12.82;7.47;;;26.70;99.90;;;;;;5054594;28;20065;-74
2022/05/21 07:50:50;;;;;;;13.18;5.80;;;26.80;99.90;;;;;;5052808;28;20050;-74
2022/05/21 07:53:20;;;;;;;8.77;5.35;;;26.70;99.90;;;;;;5059850;28;20105;-74
2022/05/21 07:55:50;;;;;;;9.40;5.57;;;26.40;99.90;;;;;;5055123;28;20048;-73
2022/05/21 07:58:19;;;;;;;10.65;5.80;;;26.20;99.90;;;;;;5059254;28;20046;-73
2022/05/21 08:00:50;;;;;;;11.85;7.65;;;26.20;99.90;;;;;;5038850;28;20574;-73
2022/05/21 08:03:19;;;;;;;12.27;7.32;;;26.40;99.90;;;;;;5035200;28;20038;-74
2022/05/21 08:05:48;;;;;;;14.30;7.38;;;26.60;99.90;;;;;;5041847;28;20043;-73
2022/05/21 08:08:16;;;;;;;13.23;7.30;;;26.80;99.90;;;;;;5034375;28;20480;-75
2022/05/21 08:10:46;;;;;;;19.55;7.35;;;26.90;99.90;;;;;;5036572;28;20433;-74
2022/05/21 08:13:15;;;;;;;16.13;7.60;;;26.90;99.90;;;;;;5025855;28;20490;-74
2022/05/21 08:15:44;;;;;;;16.92;7.35;;;26.90;99.90;;;;;;5016748;28;20050;-74
2022/05/21 08:18:11;;;;;;;18.23;8.18;;;27.00;99.90;;;;;;5017119;28;20501;-73
2022/05/21 08:20:40;;;;;;;15.75;9.30;;;27.20;99.90;;;;;;5014700;28;20103;-74
2022/05/21 08:28:52;;;;;;;11.18;7.95;;;27.40;99.90;;;;;;5036069;28;20044;-74
2022/05/21 08:31:20;;;;;;;23.05;6.68;;;27.10;99.90;;;;;;5034610;28;20052;-73
2022/05/21 08:33:47;;;;;;;8.65;5.45;;;27.30;99.90;;;;;;5035848;28;20042;-73
2022/05/21 08:36:15;;;;;;;10.15;6.57;;;27.20;99.90;;;;;;5035732;28;20041;-74
2022/05/21 08:38:43;;;;;;;13.75;6.70;;;27.00;99.90;;;;;;5035389;28;20049;-73
2022/05/21 08:41:13;;;;;;;9.35;6.45;;;26.80;99.90;;;;;;5035143;28;20037;-74
2022/05/21 08:43:56;;;;;;;16.52;8.38;;;27.00;99.90;;;;;;5035492;28;20049;-74
2022/05/21 08:46:33;;;;;;;33.25;9.00;;;27.40;99.90;;;;;;5034473;28;20100;-74
2022/05/21 08:49:06;;;;;;;20.70;7.68;;;27.50;99.90;;;;;;5035694;28;20520;-74
2022/05/21 08:51:40;;;;;;;13.48;7.80;;;27.60;99.90;;;;;;5035387;28;20046;-74
2022/05/21 08:54:12;;;;;;;14.30;10.30;;;27.80;99.90;;;;;;5034409;28;20041;-75
2022/05/21 08:56:40;;;;;;;18.75;8.25;;;28.00;99.90;;;;;;5035381;28;20056;-74
2022/05/21 08:59:10;;;;;;;11.70;6.78;;;28.30;99.90;;;;;;5033582;28;20091;-75
2022/05/21 09:01:42;;;;;;;13.35;7.28;;;27.90;99.90;;;;;;5033225;28;20493;-73
2022/05/21 09:04:11;;;;;;;15.93;8.32;;;27.90;99.90;;;;;;5035080;28;20041;-74
2022/05/21 09:06:43;;;;;;;13.05;7.75;;;27.90;99.90;;;;;;5035730;28;20049;-74
2022/05/21 09:09:23;;;;;;;17.40;7.60;;;27.90;99.90;;;;;;5035160;28;20041;-74
2022/05/21 09:11:58;;;;;;;14.55;8.27;;;28.20;99.90;;;;;;5035234;28;20038;-75
2022/05/21 09:14:33;;;;;;;16.88;7.68;;;28.40;99.90;;;;;;5034946;28;20045;-74
2022/05/21 09:17:01;;;;;;;17.38;12.85;;;28.40;99.90;;;;;;5035218;28;20052;-74
2022/05/21 09:19:35;;;;;;;11.65;6.80;;;28.40;99.90;;;;;;5019683;28;20037;-75
2022/05/21 09:22:04;;;;;;;14.60;10.32;;;28.50;99.90;;;;;;5014875;28;20034;-75
2022/05/21 09:24:40;;;;;;;13.25;8.20;;;28.50;99.90;;;;;;5015196;28;20045;-75
2022/05/21 09:27:23;;;;;;;15.80;9.82;;;28.60;99.90;;;;;;5026541;28;20056;-74
2022/05/21 09:29:52;;;;;;;18.85;8.10;;;28.70;99.90;;;;;;5014010;28;20061;-74
2022/05/21 09:32:23;;;;;;;13.77;6.60;;;28.70;99.90;;;;;;5015363;28;20044;-75
2022/05/21 09:35:07;;;;;;;12.82;5.97;;;29.00;99.90;;;;;;5016170;28;20046;-75
2022/05/21 09:37:36;;;;;;;9.32;4.88;;;28.90;99.90;;;;;;5014050;28;20053;-74
2022/05/21 09:40:25;;;;;;;10.75;4.57;;;28.40;99.90;;;;;;5013825;28;20038;-74
2022/05/21 09:45:39;;;;;;;9.30;4.57;;;27.40;99.90;;;;;;5032243;28;20065;-76
2022/05/21 09:48:20;;;;;;;13.85;6.78;;;27.60;99.90;;;;;;5033108;28;20045;-76
2022/05/21 09:50:51;;;;;;;6.95;3.85;;;27.50;99.90;;;;;;5025096;28;20041;-75
2022/05/21 09:53:30;;;;;;;9.00;4.78;;;27.30;99.90;;;;;;5032701;28;20515;-75
2022/05/21 09:56:02;;;;;;;7.88;4.60;;;27.00;99.90;;;;;;5033149;28;20041;-75
2022/05/21 09:58:34;;;;;;;8.93;4.50;;;26.80;99.90;;;;;;5032636;28;20064;-75
2022/05/21 10:01:01;;;;;;;9.35;4.53;;;26.90;99.90;;;;;;5032586;28;20108;-75
2022/05/21 10:03:45;;;;;;;8.48;4.65;;;26.80;99.90;;;;;;5032218;28;20041;-75
2022/05/21 10:06:29;;;;;;;8.13;4.47;;;27.10;99.90;;;;;;5034383;28;20053;-74
2022/05/21 10:11:55;;;;;;;9.73;4.68;;;27.60;99.90;;;;;;5033429;28;20049;-74
2022/05/21 10:14:26;;;;;;;6.05;3.95;;;27.60;99.90;;;;;;5033749;28;20505;-75
2022/05/21 10:16:58;;;;;;;11.45;4.38;;;27.80;99.90;;;;;;5033977;28;20051;-75
2022/05/21 10:19:34;;;;;;;10.25;4.63;;;27.90;99.90;;;;;;5034011;28;20045;-75
2022/05/21 10:22:16;;;;;;;8.90;4.93;;;28.00;99.90;;;;;;5033516;28;20033;-75
2022/05/21 10:24:54;;;;;;;8.60;4.53;;;28.10;99.90;;;;;;5033487;28;20508;-75
2022/05/21 10:27:36;;;;;;;8.68;5.32;;;28.10;99.90;;;;;;5033849;28;20068;-75
2022/05/21 10:30:11;;;;;;;8.90;5.78;;;28.20;99.90;;;;;;5032867;28;20051;-75
2022/05/21 10:33:08;;;;;;;8.98;5.20;;;28.20;99.90;;;;;;5033617;28;20052;-75
2022/05/21 10:35:56;;;;;;;12.40;5.28;;;28.30;99.90;;;;;;5033313;28;20370;-75
2022/05/21 10:38:40;;;;;;;12.13;5.95;;;28.50;99.90;;;;;;5033878;28;20440;-75
2022/05/21 10:41:17;;;;;;;7.47;4.97;;;28.50;99.90;;;;;;5033335;28;20041;-75
2022/05/21 10:44:03;;;;;;;7.50;4.05;;;28.50;99.90;;;;;;5034542;28;20057;-74
2022/05/21 10:46:38;;;;;;;7.68;5.30;;;28.60;99.90;;;;;;5033320;28;20125;-75
2022/05/21 10:49:33;;;;;;;5.90;4.90;;;28.60;99.90;;;;;;5033355;28;20056;-75
2022/05/21 10:52:08;;;;;;;6.22;3.95;;;28.50;99.90;;;;;;5033339;28;20073;-75
2022/05/21 10:54:48;;;;;;;7.15;4.30;;;28.20;99.90;;;;;;5033012;28;20076;-75
2022/05/21 10:57:33;;;;;;;10.50;4.95;;;28.10;99.90;;;;;;5032959;28;20439;-75
2022/05/21 11:00:07;;;;;;;7.45;4.97;;;28.20;99.90;;;;;;5032943;28;20064;-75
2022/05/21 11:03:08;;;;;;;14.88;6.78;;;28.40;99.90;;;;;;5033546;28;20037;-74
2022/05/21 11:06:06;;;;;;;7.53;3.72;;;28.70;99.90;;;;;;5027638;28;20057;-76
2022/05/21 11:08:39;;;;;;;7.40;4.47;;;28.40;99.90;;;;;;5033192;28;20481;-75
2022/05/21 11:11:11;;;;;;;5.63;4.18;;;28.30;99.90;;;;;;5032905;28;20461;-75
2022/05/21 11:13:50;;;;;;;7.60;4.10;;;28.30;99.90;;;;;;5031344;28;20076;-75
2022/05/21 11:16:23;;;;;;;8.00;3.88;;;28.30;99.90;;;;;;5033083;28;20045;-75
2022/05/21 11:18:56;;;;;;;6.65;3.67;;;28.40;99.90;;;;;;5032961;28;20129;-75
2022/05/21 11:21:28;;;;;;;6.25;4.07;;;28.40;99.90;;;;;;5032625;28;20038;-75
2022/05/21 11:24:08;;;;;;;9.50;3.85;;;28.10;99.90;;;;;;5032754;28;20054;-75
2022/05/21 11:26:41;;;;;;;10.57;4.68;;;28.20;99.90;;;;;;5032832;28;20068;-75
2022/05/21 11:29:14;;;;;;;9.90;7.10;;;28.50;99.90;;;;;;5032666;28;20056;-75
2022/05/21 11:37:25;;;;;;;9.73;4.43;;;28.30;99.90;;;;;;5031107;28;20064;-76
2022/05/21 11:39:56;;;;;;;10.60;4.38;;;28.40;99.90;;;;;;5032716;28;20107;-76
2022/05/21 11:42:25;;;;;;;9.23;4.35;;;28.40;99.90;;;;;;5035477;28;20042;-76
2022/05/21 11:44:59;;;;;;;10.77;4.05;;;28.30;99.90;;;;;;5036624;28;20068;-76
2022/05/21 11:47:43;;;;;;;7.10;4.88;;;28.20;99.90;;;;;;5036860;28;20049;-75
2022/05/21 11:50:16;;;;;;;9.98;4.25;;;28.30;99.90;;;;;;5036839;28;20084;-76
2022/05/21 11:52:56;;;;;;;5.18;3.80;;;28.40;99.90;;;;;;5036448;28;20512;-75
2022/05/21 11:55:26;;;;;;;5.47;3.65;;;28.20;99.90;;;;;;5036624;28;20069;-76
2022/05/21 11:57:56;;;;;;;8.30;3.65;;;28.00;99.90;;;;;;5035154;28;20049;-76
2022/05/21 12:00:56;;;;;;;7.70;3.90;;;28.00;99.90;;;;;;5036327;28;20056;-77
2022/05/21 12:03:45;;;;;;;9.35;3.97;;;28.10;99.90;;;;;;4975609;28;20387;-77
2022/05/21 12:06:27;;;;;;;10.27;4.55;;;28.30;99.90;;;;;;4975117;28;20054;-76
2022/05/21 12:09:11;;;;;;;11.27;4.63;;;28.40;99.90;;;;;;4976687;28;20051;-76
2022/05/21 12:11:44;;;;;;;7.03;3.60;;;28.70;99.90;;;;;;4977279;28;20045;-75
2022/05/21 12:14:20;;;;;;;7.13;3.60;;;28.60;99.90;;;;;;4959198;28;20047;-76
2022/05/21 12:16:54;;;;;;;9.63;3.97;;;28.40;99.90;;;;;;4975228;28;20051;-76
2022/05/21 12:19:58;;;;;;;8.88;4.82;;;28.50;99.90;;;;;;4958804;28;20142;-76
2022/05/21 12:22:42;;;;;;;4.32;3.40;;;28.60;99.90;;;;;;4969322;28;20450;-76
2022/05/21 12:25:15;;;;;;;12.35;5.13;;;28.70;99.90;;;;;;4959539;28;20061;-75
2022/05/21 12:27:52;;;;;;;8.25;3.92;;;28.70;99.90;;;;;;4975317;28;20133;-76
2022/05/21 12:30:27;;;;;;;8.77;3.97;;;28.80;99.90;;;;;;4975181;28;20042;-76
2022/05/21 12:32:54;;;;;;;9.00;4.10;;;28.70;99.90;;;;;;4975536;28;20047;-77
2022/05/21 12:35:38;;;;;;;4.90;3.13;;;28.70;99.90;;;;;;5032969;28;20054;-76
2022/05/21 12:38:14;;;;;;;9.13;3.63;;;28.60;99.90;;;;;;5036454;28;20146;-76
2022/05/21 12:40:51;;;;;;;7.93;4.20;;;28.20;99.90;;;;;;5036075;28;20046;-76
2022/05/21 12:43:18;;;;;;;8.85;2.63;;;28.30;99.90;;;;;;5035354;28;20116;-76
2022/05/21 12:45:49;;;;;;;6.88;2.65;;;28.30;99.90;;;;;;5036338;28;20489;-75
2022/05/21 12:48:20;;;;;;;5.47;2.90;;;28.20;99.90;;;;;;5034403;28;20052;-76
2022/05/21 12:50:55;;;;;;;6.68;2.88;;;28.00;99.90;;;;;;5035885;28;20048;-75
2022/05/21 12:53:27;;;;;;;7.40;3.53;;;28.10;99.90;;;;;;5033446;28;20374;-75
2022/05/21 12:56:00;;;;;;;9.32;3.05;;;28.10;99.90;;;;;;5035602;28;20050;-77
2022/05/21 12:58:28;;;;;;;7.07;2.92;;;28.10;99.90;;;;;;5035229;28;20501;-75
2022/05/21 13:00:57;;;;;;;5.47;2.90;;;28.20;99.90;;;;;;5034877;28;20129;-76
2022/05/21 13:03:26;;;;;;;7.43;3.25;;;28.30;99.90;;;;;;5034843;28;20412;-76
2022/05/21 13:05:57;;;;;;;3.80;2.40;;;28.30;99.90;;;;;;5034109;28;20049;-76
2022/05/21 13:08:27;;;;;;;5.05;2.92;;;28.30;99.90;;;;;;5035268;28;20077;-76
2022/05/21 13:11:02;;;;;;;11.18;3.00;;;28.20;99.90;;;;;;5035258;28;20045;-76
2022/05/21 13:13:36;;;;;;;6.43;2.90;;;28.20;99.90;;;;;;5034955;28;20048;-76
2022/05/21 13:16:06;;;;;;;4.97;3.03;;;28.30;99.90;;;;;;5035134;28;20381;-76
2022/05/21 13:18:47;;;;;;;6.32;3.17;;;28.30;99.90;;;;;;5035025;28;20037;-76
2022/05/21 13:21:27;;;;;;;5.90;3.42;;;28.40;99.90;;;;;;5035476;28;20481;-76
2022/05/21 13:24:16;;;;;;;8.50;3.15;;;28.40;99.90;;;;;;5035198;28;20056;-76
2022/05/21 13:26:44;;;;;;;6.72;2.65;;;28.30;99.90;;;;;;5034892;28;20497;-76
2022/05/21 13:29:29;;;;;;;4.55;2.90;;;28.30;99.90;;;;;;5034839;28;20049;-76
2022/05/21 13:32:13;;;;;;;5.65;2.92;;;28.40;99.90;;;;;;5034480;28;20041;-76